sensor_id;sensor_type;location;lat;lon;timestamp;temperature;humidity
44277;DHT22;29973;43.742;1.236;2023-07-29T00:01:31;18.10;99.90
44277;DHT22;29973;43.742;1.236;2023-07-29T00:03:57;17.90;99.90
44277;DHT22;29973;43.742;1.236;2023-07-29T00:06:24;17.90;99.90
44277;DHT22;29973;43.742;1.236;2023-07-29T00:08:49;18.00;99.90
44277;DHT22;29973;43.742;1.236;2023-07-29T00:11:15;18.10;99.90
44277;DHT22;29973;43.742;1.236;2023-07-29T00:13:41;18.00;99.90
44277;DHT22;29973;43.742;1.236;2023-07-29T00:16:06;18.10;99.90
44277;DHT22;29973;43.742;1.236;2023-07-29T00:18:32;18.00;99.90
44277;DHT22;29973;43.742;1.236;2023-07-29T00:20:58;18.00;99.90
44277;DHT22;29973;43.742;1.236;2023-07-29T00:23:24;18.00;99.90
44277;DHT22;29973;43.742;1.236;2023-07-29T00:25:49;17.80;99.90
44277;DHT22;29973;43.742;1.236;2023-07-29T00:28:15;17.90;99.90
44277;DHT22;29973;43.742;1.236;2023-07-29T00:30:41;17.80;99.90
44277;DHT22;29973;43.742;1.236;2023-07-29T00:33:07;17.80;99.90
44277;DHT22;29973;43.742;1.236;2023-07-29T00:35:33;17.80;99.90
44277;DHT22;29973;43.742;1.236;2023-07-29T00:37:59;17.90;99.90
44277;DHT22;29973;43.742;1.236;2023-07-29T00:40:27;17.80;99.90
44277;DHT22;29973;43.742;1.236;2023-07-29T00:42:53;17.80;99.90
44277;DHT22;29973;43.742;1.236;2023-07-29T00:45:19;17.80;99.90
44277;DHT22;29973;43.742;1.236;2023-07-29T00:47:45;17.80;99.90
44277;DHT22;29973;43.742;1.236;2023-07-29T00:50:12;17.80;99.90
44277;DHT22;29973;43.742;1.236;2023-07-29T00:52:38;17.80;99.90
44277;DHT22;29973;43.742;1.236;2023-07-29T00:55:05;17.80;99.90
44277;DHT22;29973;43.742;1.236;2023-07-29T00:57:31;17.70;99.90
44277;DHT22;29973;43.742;1.236;2023-07-29T00:59:57;17.80;99.90
44277;DHT22;29973;43.742;1.236;2023-07-29T01:02:24;17.70;99.90
44277;DHT22;29973;43.742;1.236;2023-07-29T01:04:54;17.50;99.90
44277;DHT22;29973;43.742;1.236;2023-07-29T01:07:26;17.60;99.90
44277;DHT22;29973;43.742;1.236;2023-07-29T01:10:10;17.70;99.90
44277;DHT22;29973;43.742;1.236;2023-07-29T01:12:58;17.70;99.90
44277;DHT22;29973;43.742;1.236;2023-07-29T01:15:36;17.50;99.90
44277;DHT22;29973;43.742;1.236;2023-07-29T01:18:21;17.50;99.90
44277;DHT22;29973;43.742;1.236;2023-07-29T01:20:48;17.60;99.90
44277;DHT22;29973;43.742;1.236;2023-07-29T01:23:16;17.70;99.90
44277;DHT22;29973;43.742;1.236;2023-07-29T01:25:41;17.50;99.90
44277;DHT22;29973;43.742;1.236;2023-07-29T01:28:07;17.60;99.90
44277;DHT22;29973;43.742;1.236;2023-07-29T01:30:39;17.50;99.90
44277;DHT22;29973;43.742;1.236;2023-07-29T01:38:27;17.50;99.90
44277;DHT22;29973;43.742;1.236;2023-07-29T01:40:58;17.30;99.90
44277;DHT22;29973;43.742;1.236;2023-07-29T01:43:27;17.20;99.90
44277;DHT22;29973;43.742;1.236;2023-07-29T01:45:53;17.20;99.90
44277;DHT22;29973;43.742;1.236;2023-07-29T01:48:19;17.20;99.90
44277;DHT22;29973;43.742;1.236;2023-07-29T01:50:44;17.00;99.90
44277;DHT22;29973;43.742;1.236;2023-07-29T01:53:10;17.00;99.90
44277;DHT22;29973;43.742;1.236;2023-07-29T01:55:36;17.00;99.90
44277;DHT22;29973;43.742;1.236;2023-07-29T01:58:01;16.90;99.90
44277;DHT22;29973;43.742;1.236;2023-07-29T02:00:27;17.00;99.90
44277;DHT22;29973;43.742;1.236;2023-07-29T02:02:53;16.90;99.90
44277;DHT22;29973;43.742;1.236;2023-07-29T02:05:18;16.80;99.90
44277;DHT22;29973;43.742;1.236;2023-07-29T02:07:44;16.80;99.90
44277;DHT22;29973;43.742;1.236;2023-07-29T02:10:10;16.70;99.90
44277;DHT22;29973;43.742;1.236;2023-07-29T02:12:36;16.90;99.90
44277;DHT22;29973;43.742;1.236;2023-07-29T02:15:01;16.70;99.90
44277;DHT22;29973;43.742;1.236;2023-07-29T02:17:27;16.70;99.90
44277;DHT22;29973;43.742;1.236;2023-07-29T02:19:53;16.80;99.90
44277;DHT22;29973;43.742;1.236;2023-07-29T02:22:18;16.70;99.90
44277;DHT22;29973;43.742;1.236;2023-07-29T02:24:44;16.70;99.90
44277;DHT22;29973;43.742;1.236;2023-07-29T02:27:11;16.70;99.90
44277;DHT22;29973;43.742;1.236;2023-07-29T02:29:36;16.70;99.90
44277;DHT22;29973;43.742;1.236;2023-07-29T02:32:02;16.70;99.90
44277;DHT22;29973;43.742;1.236;2023-07-29T02:34:29;16.60;99.90
44277;DHT22;29973;43.742;1.236;2023-07-29T02:36:54;16.80;99.90
44277;DHT22;29973;43.742;1.236;2023-07-29T02:39:20;16.80;99.90
44277;DHT22;29973;43.742;1.236;2023-07-29T02:41:46;16.70;99.90
44277;DHT22;29973;43.742;1.236;2023-07-29T02:44:12;16.60;99.90
44277;DHT22;29973;43.742;1.236;2023-07-29T02:46:37;16.60;99.90
44277;DHT22;29973;43.742;1.236;2023-07-29T02:49:03;16.60;99.90
44277;DHT22;29973;43.742;1.236;2023-07-29T02:51:30;16.70;99.90
44277;DHT22;29973;43.742;1.236;2023-07-29T02:53:56;16.70;99.90
44277;DHT22;29973;43.742;1.236;2023-07-29T02:56:22;16.70;99.90
44277;DHT22;29973;43.742;1.236;2023-07-29T02:58:47;16.80;99.90
44277;DHT22;29973;43.742;1.236;2023-07-29T03:01:13;16.70;99.90
44277;DHT22;29973;43.742;1.236;2023-07-29T03:03:39;16.70;99.90
44277;DHT22;29973;43.742;1.236;2023-07-29T03:06:10;16.60;99.90
44277;DHT22;29973;43.742;1.236;2023-07-29T03:08:36;16.50;99.90
44277;DHT22;29973;43.742;1.236;2023-07-29T03:11:10;16.50;99.90
44277;DHT22;29973;43.742;1.236;2023-07-29T03:13:36;16.40;99.90
44277;DHT22;29973;43.742;1.236;2023-07-29T03:16:13;16.40;99.90
44277;DHT22;29973;43.742;1.236;2023-07-29T03:18:40;16.30;99.90
44277;DHT22;29973;43.742;1.236;2023-07-29T03:21:06;16.40;99.90
44277;DHT22;29973;43.742;1.236;2023-07-29T03:23:33;16.50;99.90
44277;DHT22;29973;43.742;1.236;2023-07-29T03:26:00;16.60;99.90
44277;DHT22;29973;43.742;1.236;2023-07-29T03:28:27;16.30;99.90
44277;DHT22;29973;43.742;1.236;2023-07-29T03:30:54;16.20;99.90
44277;DHT22;29973;43.742;1.236;2023-07-29T03:33:20;16.10;99.90
44277;DHT22;29973;43.742;1.236;2023-07-29T03:35:46;16.20;99.90
44277;DHT22;29973;43.742;1.236;2023-07-29T03:38:12;16.20;99.90
44277;DHT22;29973;43.742;1.236;2023-07-29T03:40:38;16.40;99.90
44277;DHT22;29973;43.742;1.236;2023-07-29T03:43:04;16.30;99.90
44277;DHT22;29973;43.742;1.236;2023-07-29T03:45:30;16.30;99.90
44277;DHT22;29973;43.742;1.236;2023-07-29T03:47:56;16.40;99.90
44277;DHT22;29973;43.742;1.236;2023-07-29T03:50:22;16.30;99.90
44277;DHT22;29973;43.742;1.236;2023-07-29T03:52:47;16.10;99.90
44277;DHT22;29973;43.742;1.236;2023-07-29T03:55:13;16.20;99.90
44277;DHT22;29973;43.742;1.236;2023-07-29T03:57:39;16.20;99.90
44277;DHT22;29973;43.742;1.236;2023-07-29T04:00:05;16.20;99.90
44277;DHT22;29973;43.742;1.236;2023-07-29T04:02:31;16.20;99.90
44277;DHT22;29973;43.742;1.236;2023-07-29T04:04:57;16.10;99.90
44277;DHT22;29973;43.742;1.236;2023-07-29T04:07:23;16.00;99.90
44277;DHT22;29973;43.742;1.236;2023-07-29T04:09:49;16.10;99.90
44277;DHT22;29973;43.742;1.236;2023-07-29T04:12:15;16.20;99.90
44277;DHT22;29973;43.742;1.236;2023-07-29T04:14:41;16.10;99.90
44277;DHT22;29973;43.742;1.236;2023-07-29T04:17:07;16.00;99.90
44277;DHT22;29973;43.742;1.236;2023-07-29T04:19:33;16.00;99.90
44277;DHT22;29973;43.742;1.236;2023-07-29T04:21:59;15.90;99.90
44277;DHT22;29973;43.742;1.236;2023-07-29T04:24:25;15.80;99.90
44277;DHT22;29973;43.742;1.236;2023-07-29T04:26:50;15.80;99.90
44277;DHT22;29973;43.742;1.236;2023-07-29T04:29:16;15.60;99.90
44277;DHT22;29973;43.742;1.236;2023-07-29T04:31:42;15.60;99.90
44277;DHT22;29973;43.742;1.236;2023-07-29T04:34:08;15.60;99.90
44277;DHT22;29973;43.742;1.236;2023-07-29T04:36:34;15.70;99.90
44277;DHT22;29973;43.742;1.236;2023-07-29T04:39:00;15.80;99.90
44277;DHT22;29973;43.742;1.236;2023-07-29T04:41:26;15.90;99.90
44277;DHT22;29973;43.742;1.236;2023-07-29T04:43:51;16.00;99.90
44277;DHT22;29973;43.742;1.236;2023-07-29T04:46:18;15.90;99.90
44277;DHT22;29973;43.742;1.236;2023-07-29T04:48:43;15.80;99.90
44277;DHT22;29973;43.742;1.236;2023-07-29T04:51:09;15.80;99.90
44277;DHT22;29973;43.742;1.236;2023-07-29T04:53:35;16.00;99.90
44277;DHT22;29973;43.742;1.236;2023-07-29T04:56:02;15.90;99.90
44277;DHT22;29973;43.742;1.236;2023-07-29T04:58:28;16.10;99.90
44277;DHT22;29973;43.742;1.236;2023-07-29T05:00:55;16.10;99.90
44277;DHT22;29973;43.742;1.236;2023-07-29T05:03:21;16.10;99.90
44277;DHT22;29973;43.742;1.236;2023-07-29T05:05:47;16.10;99.90
44277;DHT22;29973;43.742;1.236;2023-07-29T05:08:12;16.10;99.90
44277;DHT22;29973;43.742;1.236;2023-07-29T05:10:38;16.20;99.90
44277;DHT22;29973;43.742;1.236;2023-07-29T05:13:04;16.30;99.90
44277;DHT22;29973;43.742;1.236;2023-07-29T05:15:29;16.30;99.90
44277;DHT22;29973;43.742;1.236;2023-07-29T05:17:56;16.30;99.90
44277;DHT22;29973;43.742;1.236;2023-07-29T05:20:21;16.40;99.90
44277;DHT22;29973;43.742;1.236;2023-07-29T05:22:47;16.50;99.90
44277;DHT22;29973;43.742;1.236;2023-07-29T05:25:13;16.70;99.90
44277;DHT22;29973;43.742;1.236;2023-07-29T05:27:38;16.60;99.90
44277;DHT22;29973;43.742;1.236;2023-07-29T05:30:05;16.60;99.90
44277;DHT22;29973;43.742;1.236;2023-07-29T05:32:32;16.80;99.90
44277;DHT22;29973;43.742;1.236;2023-07-29T05:34:57;16.90;99.90
44277;DHT22;29973;43.742;1.236;2023-07-29T05:37:23;16.80;99.90
44277;DHT22;29973;43.742;1.236;2023-07-29T05:39:49;17.00;99.90
44277;DHT22;29973;43.742;1.236;2023-07-29T05:42:14;17.20;99.90
44277;DHT22;29973;43.742;1.236;2023-07-29T05:44:40;17.30;99.90
44277;DHT22;29973;43.742;1.236;2023-07-29T05:47:06;17.30;99.90
44277;DHT22;29973;43.742;1.236;2023-07-29T05:49:31;17.40;99.90
44277;DHT22;29973;43.742;1.236;2023-07-29T05:51:57;17.40;99.90
44277;DHT22;29973;43.742;1.236;2023-07-29T05:54:23;17.60;99.90
44277;DHT22;29973;43.742;1.236;2023-07-29T05:56:49;17.90;99.90
44277;DHT22;29973;43.742;1.236;2023-07-29T05:59:14;18.10;99.90
44277;DHT22;29973;43.742;1.236;2023-07-29T06:01:40;18.30;99.90
44277;DHT22;29973;43.742;1.236;2023-07-29T06:04:06;18.40;99.90
44277;DHT22;29973;43.742;1.236;2023-07-29T06:06:31;18.60;99.90
44277;DHT22;29973;43.742;1.236;2023-07-29T06:08:57;18.70;99.90
44277;DHT22;29973;43.742;1.236;2023-07-29T06:11:23;18.80;99.90
44277;DHT22;29973;43.742;1.236;2023-07-29T06:13:49;18.90;99.90
44277;DHT22;29973;43.742;1.236;2023-07-29T06:16:15;19.00;99.90
44277;DHT22;29973;43.742;1.236;2023-07-29T06:18:40;19.10;99.90
44277;DHT22;29973;43.742;1.236;2023-07-29T06:21:06;19.30;99.90
44277;DHT22;29973;43.742;1.236;2023-07-29T06:23:34;19.40;99.90
44277;DHT22;29973;43.742;1.236;2023-07-29T06:25:59;19.50;99.90
44277;DHT22;29973;43.742;1.236;2023-07-29T06:28:26;19.60;99.90
44277;DHT22;29973;43.742;1.236;2023-07-29T06:30:52;19.60;99.90
44277;DHT22;29973;43.742;1.236;2023-07-29T06:33:18;19.80;99.90
44277;DHT22;29973;43.742;1.236;2023-07-29T06:35:44;20.00;99.90
44277;DHT22;29973;43.742;1.236;2023-07-29T06:38:09;20.00;99.90
44277;DHT22;29973;43.742;1.236;2023-07-29T06:40:35;20.20;99.90
44277;DHT22;29973;43.742;1.236;2023-07-29T06:43:01;20.30;99.90
44277;DHT22;29973;43.742;1.236;2023-07-29T06:45:26;20.40;99.90
44277;DHT22;29973;43.742;1.236;2023-07-29T06:47:52;20.50;99.90
44277;DHT22;29973;43.742;1.236;2023-07-29T06:50:18;20.70;99.90
44277;DHT22;29973;43.742;1.236;2023-07-29T06:52:44;20.80;99.90
44277;DHT22;29973;43.742;1.236;2023-07-29T06:55:10;20.90;99.90
44277;DHT22;29973;43.742;1.236;2023-07-29T06:57:36;21.10;99.90
44277;DHT22;29973;43.742;1.236;2023-07-29T07:00:02;21.00;99.90
44277;DHT22;29973;43.742;1.236;2023-07-29T07:02:28;21.00;99.90
44277;DHT22;29973;43.742;1.236;2023-07-29T07:04:54;21.20;99.90
44277;DHT22;29973;43.742;1.236;2023-07-29T07:07:20;21.30;99.90
44277;DHT22;29973;43.742;1.236;2023-07-29T07:09:45;21.40;99.90
44277;DHT22;29973;43.742;1.236;2023-07-29T07:12:11;21.70;99.90
44277;DHT22;29973;43.742;1.236;2023-07-29T07:14:37;21.80;99.90
44277;DHT22;29973;43.742;1.236;2023-07-29T07:17:03;21.90;99.90
44277;DHT22;29973;43.742;1.236;2023-07-29T07:19:29;22.10;99.90
44277;DHT22;29973;43.742;1.236;2023-07-29T07:21:55;22.20;99.90
44277;DHT22;29973;43.742;1.236;2023-07-29T07:24:20;22.30;99.90
44277;DHT22;29973;43.742;1.236;2023-07-29T07:26:46;22.40;99.90
44277;DHT22;29973;43.742;1.236;2023-07-29T07:29:12;22.50;99.90
44277;DHT22;29973;43.742;1.236;2023-07-29T07:31:37;22.60;99.90
44277;DHT22;29973;43.742;1.236;2023-07-29T07:34:03;22.70;99.90
44277;DHT22;29973;43.742;1.236;2023-07-29T07:36:29;22.70;99.90
44277;DHT22;29973;43.742;1.236;2023-07-29T07:38:55;22.90;99.90
44277;DHT22;29973;43.742;1.236;2023-07-29T07:41:21;22.80;99.90
44277;DHT22;29973;43.742;1.236;2023-07-29T07:43:47;23.10;99.90
44277;DHT22;29973;43.742;1.236;2023-07-29T07:46:12;23.20;99.90
44277;DHT22;29973;43.742;1.236;2023-07-29T07:48:38;23.30;99.90
44277;DHT22;29973;43.742;1.236;2023-07-29T07:51:13;23.40;99.90
44277;DHT22;29973;43.742;1.236;2023-07-29T07:53:39;23.30;99.90
44277;DHT22;29973;43.742;1.236;2023-07-29T07:56:06;23.60;99.90
44277;DHT22;29973;43.742;1.236;2023-07-29T07:58:32;23.60;99.90
44277;DHT22;29973;43.742;1.236;2023-07-29T08:01:04;23.70;99.90
44277;DHT22;29973;43.742;1.236;2023-07-29T08:03:31;23.90;99.90
44277;DHT22;29973;43.742;1.236;2023-07-29T08:05:56;24.00;99.90
44277;DHT22;29973;43.742;1.236;2023-07-29T08:08:22;23.80;99.90
44277;DHT22;29973;43.742;1.236;2023-07-29T08:10:48;24.20;99.90
44277;DHT22;29973;43.742;1.236;2023-07-29T08:13:13;24.40;99.90
44277;DHT22;29973;43.742;1.236;2023-07-29T08:15:39;24.60;99.90
44277;DHT22;29973;43.742;1.236;2023-07-29T08:18:06;24.60;99.90
44277;DHT22;29973;43.742;1.236;2023-07-29T08:20:32;24.60;99.90
44277;DHT22;29973;43.742;1.236;2023-07-29T08:22:58;24.80;99.90
44277;DHT22;29973;43.742;1.236;2023-07-29T08:25:24;24.80;99.90
44277;DHT22;29973;43.742;1.236;2023-07-29T08:27:49;24.80;99.90
44277;DHT22;29973;43.742;1.236;2023-07-29T08:30:15;25.20;99.90
44277;DHT22;29973;43.742;1.236;2023-07-29T08:32:42;24.90;99.90
44277;DHT22;29973;43.742;1.236;2023-07-29T08:35:08;24.90;99.90
44277;DHT22;29973;43.742;1.236;2023-07-29T08:37:33;25.40;99.90
44277;DHT22;29973;43.742;1.236;2023-07-29T08:39:59;25.50;99.90
44277;DHT22;29973;43.742;1.236;2023-07-29T08:42:29;25.40;99.90
44277;DHT22;29973;43.742;1.236;2023-07-29T08:44:56;25.60;99.90
44277;DHT22;29973;43.742;1.236;2023-07-29T08:47:24;25.90;99.90
44277;DHT22;29973;43.742;1.236;2023-07-29T08:49:51;26.10;99.90
44277;DHT22;29973;43.742;1.236;2023-07-29T08:52:18;26.20;99.90
44277;DHT22;29973;43.742;1.236;2023-07-29T08:54:44;26.10;99.90
44277;DHT22;29973;43.742;1.236;2023-07-29T08:57:10;26.30;99.90
44277;DHT22;29973;43.742;1.236;2023-07-29T08:59:37;26.40;99.90
44277;DHT22;29973;43.742;1.236;2023-07-29T09:02:03;26.70;99.90
44277;DHT22;29973;43.742;1.236;2023-07-29T09:04:28;26.70;99.90
44277;DHT22;29973;43.742;1.236;2023-07-29T09:06:56;26.70;99.90
44277;DHT22;29973;43.742;1.236;2023-07-29T09:09:22;26.60;99.90
44277;DHT22;29973;43.742;1.236;2023-07-29T09:11:48;26.70;99.90
44277;DHT22;29973;43.742;1.236;2023-07-29T09:14:14;27.00;99.90
44277;DHT22;29973;43.742;1.236;2023-07-29T09:16:40;27.10;99.90
44277;DHT22;29973;43.742;1.236;2023-07-29T09:19:06;27.10;99.90
44277;DHT22;29973;43.742;1.236;2023-07-29T09:21:32;27.20;99.90
44277;DHT22;29973;43.742;1.236;2023-07-29T09:24:03;27.40;99.90
44277;DHT22;29973;43.742;1.236;2023-07-29T09:26:29;27.30;99.90
44277;DHT22;29973;43.742;1.236;2023-07-29T09:28:58;27.30;99.90
44277;DHT22;29973;43.742;1.236;2023-07-29T09:31:26;27.40;99.90
44277;DHT22;29973;43.742;1.236;2023-07-29T09:33:59;27.60;99.90
44277;DHT22;29973;43.742;1.236;2023-07-29T09:36:26;27.90;99.90
44277;DHT22;29973;43.742;1.236;2023-07-29T09:38:53;28.40;99.90
44277;DHT22;29973;43.742;1.236;2023-07-29T09:41:28;28.50;99.90
44277;DHT22;29973;43.742;1.236;2023-07-29T09:43:58;28.30;99.90
44277;DHT22;29973;43.742;1.236;2023-07-29T09:46:25;28.40;99.90
44277;DHT22;29973;43.742;1.236;2023-07-29T09:48:54;28.40;99.90
44277;DHT22;29973;43.742;1.236;2023-07-29T09:51:23;28.70;99.90
44277;DHT22;29973;43.742;1.236;2023-07-29T09:53:51;28.80;99.90
44277;DHT22;29973;43.742;1.236;2023-07-29T09:56:17;29.00;99.90
44277;DHT22;29973;43.742;1.236;2023-07-29T09:58:44;29.20;99.90
44277;DHT22;29973;43.742;1.236;2023-07-29T10:01:11;29.10;99.90
44277;DHT22;29973;43.742;1.236;2023-07-29T10:03:37;29.60;99.90
44277;DHT22;29973;43.742;1.236;2023-07-29T10:06:04;29.70;99.90
44277;DHT22;29973;43.742;1.236;2023-07-29T10:08:31;29.50;99.90
44277;DHT22;29973;43.742;1.236;2023-07-29T10:11:07;29.60;99.90
44277;DHT22;29973;43.742;1.236;2023-07-29T10:13:34;29.60;99.90
44277;DHT22;29973;43.742;1.236;2023-07-29T10:16:00;29.20;99.90
44277;DHT22;29973;43.742;1.236;2023-07-29T10:18:29;29.90;99.90
44277;DHT22;29973;43.742;1.236;2023-07-29T10:20:57;30.00;99.90
44277;DHT22;29973;43.742;1.236;2023-07-29T10:23:25;30.20;99.90
44277;DHT22;29973;43.742;1.236;2023-07-29T10:26:05;30.00;99.90
44277;DHT22;29973;43.742;1.236;2023-07-29T10:28:32;29.70;99.90
44277;DHT22;29973;43.742;1.236;2023-07-29T10:30:59;29.60;99.90
44277;DHT22;29973;43.742;1.236;2023-07-29T10:33:27;30.00;99.90
44277;DHT22;29973;43.742;1.236;2023-07-29T10:35:54;30.60;99.90
44277;DHT22;29973;43.742;1.236;2023-07-29T10:38:23;30.20;99.90
44277;DHT22;29973;43.742;1.236;2023-07-29T10:40:54;30.40;99.90
44277;DHT22;29973;43.742;1.236;2023-07-29T10:43:34;30.60;99.90
44277;DHT22;29973;43.742;1.236;2023-07-29T10:46:20;30.60;99.90
44277;DHT22;29973;43.742;1.236;2023-07-29T10:48:52;30.90;99.90
44277;DHT22;29973;43.742;1.236;2023-07-29T10:51:34;30.70;99.90
44277;DHT22;29973;43.742;1.236;2023-07-29T10:54:02;30.60;99.90
44277;DHT22;29973;43.742;1.236;2023-07-29T10:56:30;30.50;99.90
44277;DHT22;29973;43.742;1.236;2023-07-29T11:01:56;30.30;99.90
44277;DHT22;29973;43.742;1.236;2023-07-29T11:04:28;30.60;99.90
44277;DHT22;29973;43.742;1.236;2023-07-29T11:09:58;30.70;99.90
44277;DHT22;29973;43.742;1.236;2023-07-29T11:12:46;31.10;98.10
44277;DHT22;29973;43.742;1.236;2023-07-29T11:15:19;31.60;99.40
44277;DHT22;29973;43.742;1.236;2023-07-29T11:17:46;31.60;99.20
44277;DHT22;29973;43.742;1.236;2023-07-29T11:20:13;31.70;96.70
44277;DHT22;29973;43.742;1.236;2023-07-29T11:22:40;31.50;96.20
44277;DHT22;29973;43.742;1.236;2023-07-29T11:25:08;31.00;96.10
44277;DHT22;29973;43.742;1.236;2023-07-29T11:27:34;31.20;95.70
44277;DHT22;29973;43.742;1.236;2023-07-29T11:30:02;31.80;95.60
44277;DHT22;29973;43.742;1.236;2023-07-29T11:32:28;32.60;95.50
44277;DHT22;29973;43.742;1.236;2023-07-29T11:34:54;33.90;92.80
44277;DHT22;29973;43.742;1.236;2023-07-29T11:37:19;35.20;90.70
44277;DHT22;29973;43.742;1.236;2023-07-29T11:39:48;36.10;82.10
44277;DHT22;29973;43.742;1.236;2023-07-29T11:42:15;35.50;78.60
44277;DHT22;29973;43.742;1.236;2023-07-29T11:44:41;36.10;81.90
44277;DHT22;29973;43.742;1.236;2023-07-29T11:47:07;35.60;74.80
44277;DHT22;29973;43.742;1.236;2023-07-29T11:49:34;36.70;71.90
44277;DHT22;29973;43.742;1.236;2023-07-29T11:52:01;35.00;75.00
44277;DHT22;29973;43.742;1.236;2023-07-29T11:54:27;37.00;72.20
44277;DHT22;29973;43.742;1.236;2023-07-29T11:56:53;36.30;66.10
44277;DHT22;29973;43.742;1.236;2023-07-29T11:59:19;37.90;66.10
44277;DHT22;29973;43.742;1.236;2023-07-29T12:01:45;38.50;63.10
44277;DHT22;29973;43.742;1.236;2023-07-29T12:04:12;36.70;64.70
44277;DHT22;29973;43.742;1.236;2023-07-29T12:06:38;36.30;65.30
44277;DHT22;29973;43.742;1.236;2023-07-29T12:09:04;37.50;64.40
44277;DHT22;29973;43.742;1.236;2023-07-29T12:11:30;38.20;61.00
44277;DHT22;29973;43.742;1.236;2023-07-29T12:13:56;38.30;61.20
44277;DHT22;29973;43.742;1.236;2023-07-29T12:16:21;37.80;56.50
44277;DHT22;29973;43.742;1.236;2023-07-29T12:18:50;37.90;55.90
44277;DHT22;29973;43.742;1.236;2023-07-29T12:21:16;37.00;60.10
44277;DHT22;29973;43.742;1.236;2023-07-29T12:23:43;35.40;61.60
44277;DHT22;29973;43.742;1.236;2023-07-29T12:26:08;35.10;65.80
44277;DHT22;29973;43.742;1.236;2023-07-29T12:28:34;37.40;62.50
44277;DHT22;29973;43.742;1.236;2023-07-29T12:31:00;35.30;66.30
44277;DHT22;29973;43.742;1.236;2023-07-29T12:33:36;37.40;59.20
44277;DHT22;29973;43.742;1.236;2023-07-29T12:36:03;37.90;56.80
44277;DHT22;29973;43.742;1.236;2023-07-29T12:38:29;37.50;58.80
44277;DHT22;29973;43.742;1.236;2023-07-29T12:40:56;36.50;56.80
44277;DHT22;29973;43.742;1.236;2023-07-29T12:43:22;37.40;62.20
44277;DHT22;29973;43.742;1.236;2023-07-29T12:45:51;38.00;56.20
44277;DHT22;29973;43.742;1.236;2023-07-29T12:48:17;38.40;57.00
44277;DHT22;29973;43.742;1.236;2023-07-29T12:50:43;36.40;60.10
44277;DHT22;29973;43.742;1.236;2023-07-29T12:53:09;36.80;59.90
44277;DHT22;29973;43.742;1.236;2023-07-29T12:55:38;35.90;61.50
44277;DHT22;29973;43.742;1.236;2023-07-29T12:58:04;36.00;62.50
44277;DHT22;29973;43.742;1.236;2023-07-29T13:00:30;36.10;60.00
44277;DHT22;29973;43.742;1.236;2023-07-29T13:02:56;33.50;67.90
44277;DHT22;29973;43.742;1.236;2023-07-29T13:05:22;35.60;64.50
44277;DHT22;29973;43.742;1.236;2023-07-29T13:07:47;35.10;66.40
44277;DHT22;29973;43.742;1.236;2023-07-29T13:10:14;36.10;62.60
44277;DHT22;29973;43.742;1.236;2023-07-29T13:12:39;34.50;63.20
44277;DHT22;29973;43.742;1.236;2023-07-29T13:15:06;33.60;68.60
44277;DHT22;29973;43.742;1.236;2023-07-29T13:17:32;35.10;66.30
44277;DHT22;29973;43.742;1.236;2023-07-29T13:19:58;36.30;58.20
44277;DHT22;29973;43.742;1.236;2023-07-29T13:22:24;39.10;56.20
44277;DHT22;29973;43.742;1.236;2023-07-29T13:24:49;39.10;53.30
44277;DHT22;29973;43.742;1.236;2023-07-29T13:27:16;37.40;53.70
44277;DHT22;29973;43.742;1.236;2023-07-29T13:29:41;36.50;57.60
44277;DHT22;29973;43.742;1.236;2023-07-29T13:32:09;37.60;61.80
44277;DHT22;29973;43.742;1.236;2023-07-29T13:34:34;41.20;55.70
44277;DHT22;29973;43.742;1.236;2023-07-29T13:37:00;40.80;49.40
44277;DHT22;29973;43.742;1.236;2023-07-29T13:39:26;41.80;48.20
44277;DHT22;29973;43.742;1.236;2023-07-29T13:41:53;37.50;51.90
44277;DHT22;29973;43.742;1.236;2023-07-29T13:44:19;37.20;54.30
44277;DHT22;29973;43.742;1.236;2023-07-29T13:46:44;35.50;59.80
44277;DHT22;29973;43.742;1.236;2023-07-29T13:49:10;37.50;56.00
44277;DHT22;29973;43.742;1.236;2023-07-29T13:51:36;37.00;54.20
44277;DHT22;29973;43.742;1.236;2023-07-29T13:54:02;37.90;55.50
44277;DHT22;29973;43.742;1.236;2023-07-29T13:56:28;38.50;52.60
44277;DHT22;29973;43.742;1.236;2023-07-29T13:58:54;37.50;54.70
44277;DHT22;29973;43.742;1.236;2023-07-29T14:01:19;40.20;51.00
44277;DHT22;29973;43.742;1.236;2023-07-29T14:03:45;41.00;49.60
44277;DHT22;29973;43.742;1.236;2023-07-29T14:06:10;40.00;49.20
44277;DHT22;29973;43.742;1.236;2023-07-29T14:08:36;40.30;50.30
44277;DHT22;29973;43.742;1.236;2023-07-29T14:11:02;38.60;53.40
44277;DHT22;29973;43.742;1.236;2023-07-29T14:13:28;39.10;50.70
44277;DHT22;29973;43.742;1.236;2023-07-29T14:15:53;38.90;49.40
44277;DHT22;29973;43.742;1.236;2023-07-29T14:18:19;35.20;57.00
44277;DHT22;29973;43.742;1.236;2023-07-29T14:20:45;34.50;61.50
44277;DHT22;29973;43.742;1.236;2023-07-29T14:23:11;34.20;59.60
44277;DHT22;29973;43.742;1.236;2023-07-29T14:25:36;34.40;60.70
44277;DHT22;29973;43.742;1.236;2023-07-29T14:28:02;34.40;58.90
44277;DHT22;29973;43.742;1.236;2023-07-29T14:30:28;33.60;62.60
44277;DHT22;29973;43.742;1.236;2023-07-29T14:32:53;33.10;62.30
44277;DHT22;29973;43.742;1.236;2023-07-29T14:35:19;32.90;68.80
44277;DHT22;29973;43.742;1.236;2023-07-29T14:37:45;33.40;66.60
44277;DHT22;29973;43.742;1.236;2023-07-29T14:40:10;33.40;66.50
44277;DHT22;29973;43.742;1.236;2023-07-29T14:42:36;33.20;68.40
44277;DHT22;29973;43.742;1.236;2023-07-29T14:45:02;33.00;67.70
44277;DHT22;29973;43.742;1.236;2023-07-29T14:47:27;32.40;69.20
44277;DHT22;29973;43.742;1.236;2023-07-29T14:49:53;32.10;71.00
44277;DHT22;29973;43.742;1.236;2023-07-29T14:52:19;31.70;72.90
44277;DHT22;29973;43.742;1.236;2023-07-29T14:54:45;32.10;72.20
44277;DHT22;29973;43.742;1.236;2023-07-29T14:57:10;31.50;71.80
44277;DHT22;29973;43.742;1.236;2023-07-29T14:59:36;31.60;73.10
44277;DHT22;29973;43.742;1.236;2023-07-29T15:02:02;31.50;75.30
44277;DHT22;29973;43.742;1.236;2023-07-29T15:04:28;31.50;73.60
44277;DHT22;29973;43.742;1.236;2023-07-29T15:06:53;30.70;77.00
44277;DHT22;29973;43.742;1.236;2023-07-29T15:09:19;31.10;78.80
44277;DHT22;29973;43.742;1.236;2023-07-29T15:11:45;31.00;76.30
44277;DHT22;29973;43.742;1.236;2023-07-29T15:14:10;31.20;77.80
44277;DHT22;29973;43.742;1.236;2023-07-29T15:16:36;31.40;76.70
44277;DHT22;29973;43.742;1.236;2023-07-29T15:19:04;31.10;77.10
44277;DHT22;29973;43.742;1.236;2023-07-29T15:21:30;31.60;79.10
44277;DHT22;29973;43.742;1.236;2023-07-29T15:23:55;31.60;73.70
44277;DHT22;29973;43.742;1.236;2023-07-29T15:26:21;31.60;74.60
44277;DHT22;29973;43.742;1.236;2023-07-29T15:28:47;32.10;75.90
44277;DHT22;29973;43.742;1.236;2023-07-29T15:31:13;34.30;64.40
44277;DHT22;29973;43.742;1.236;2023-07-29T15:33:39;33.80;68.40
44277;DHT22;29973;43.742;1.236;2023-07-29T15:36:04;33.20;71.40
44277;DHT22;29973;43.742;1.236;2023-07-29T15:38:30;33.40;70.40